sensor_id;sensor_type;location;lat;lon;timestamp;pressure;altitude;pressure_sealevel;temperature;humidity
56042;BME280;48756;41.374;2.066;2023-03-16T00:01:34;101166.53;;;12.75;80.21
56042;BME280;48756;41.374;2.066;2023-03-16T00:04:00;101173.63;;;12.64;81.20
56042;BME280;48756;41.374;2.066;2023-03-16T00:06:26;101177.06;;;12.67;81.15
56042;BME280;48756;41.374;2.066;2023-03-16T00:08:51;101170.97;;;12.70;79.97
56042;BME280;48756;41.374;2.066;2023-03-16T00:11:17;101169.13;;;12.78;80.62
56042;BME280;48756;41.374;2.066;2023-03-16T00:13:42;101165.75;;;12.67;80.57
56042;BME280;48756;41.374;2.066;2023-03-16T00:16:07;101171.91;;;12.61;80.97
56042;BME280;48756;41.374;2.066;2023-03-16T00:18:33;101175.50;;;12.52;81.66
56042;BME280;48756;41.374;2.066;2023-03-16T00:21:03;101164.03;;;12.64;81.32
56042;BME280;48756;41.374;2.066;2023-03-16T00:23:30;101164.91;;;12.65;81.33
56042;BME280;48756;41.374;2.066;2023-03-16T00:26:00;101167.53;;;12.63;82.19
56042;BME280;48756;41.374;2.066;2023-03-16T00:28:27;101163.16;;;12.65;81.73
56042;BME280;48756;41.374;2.066;2023-03-16T00:30:54;101167.50;;;12.65;80.89
56042;BME280;48756;41.374;2.066;2023-03-16T00:33:23;101165.84;;;12.59;82.01
56042;BME280;48756;41.374;2.066;2023-03-16T00:35:49;101161.56;;;12.53;81.55
56042;BME280;48756;41.374;2.066;2023-03-16T00:38:18;101158.16;;;12.44;82.01
56042;BME280;48756;41.374;2.066;2023-03-16T00:40:43;101170.50;;;12.30;81.69
56042;BME280;48756;41.374;2.066;2023-03-16T00:43:09;101159.25;;;12.20;83.24
56042;BME280;48756;41.374;2.066;2023-03-16T00:45:34;101163.47;;;12.35;83.26
56042;BME280;48756;41.374;2.066;2023-03-16T00:48:00;101165.44;;;12.13;82.80
56042;BME280;48756;41.374;2.066;2023-03-16T00:50:26;101163.56;;;12.29;83.29
56042;BME280;48756;41.374;2.066;2023-03-16T00:52:51;101167.94;;;12.22;83.93
56042;BME280;48756;41.374;2.066;2023-03-16T00:55:18;101174.81;;;12.35;84.96
56042;BME280;48756;41.374;2.066;2023-03-16T00:57:44;101174.72;;;12.46;83.61
56042;BME280;48756;41.374;2.066;2023-03-16T01:00:09;101167.72;;;12.48;83.26
56042;BME280;48756;41.374;2.066;2023-03-16T01:02:39;101164.16;;;12.55;82.32
56042;BME280;48756;41.374;2.066;2023-03-16T01:05:04;101159.06;;;12.40;82.81
56042;BME280;48756;41.374;2.066;2023-03-16T01:07:30;101154.09;;;12.14;84.93
56042;BME280;48756;41.374;2.066;2023-03-16T01:09:56;101154.13;;;12.12;85.47
56042;BME280;48756;41.374;2.066;2023-03-16T01:12:22;101162.84;;;12.11;85.48
56042;BME280;48756;41.374;2.066;2023-03-16T01:14:48;101156.75;;;12.11;86.18
56042;BME280;48756;41.374;2.066;2023-03-16T01:17:14;101160.03;;;12.31;84.88
56042;BME280;48756;41.374;2.066;2023-03-16T01:19:39;101161.78;;;12.31;83.94
56042;BME280;48756;41.374;2.066;2023-03-16T01:22:05;101166.19;;;12.27;84.14
56042;BME280;48756;41.374;2.066;2023-03-16T01:24:31;101162.72;;;12.20;83.39
56042;BME280;48756;41.374;2.066;2023-03-16T01:26:58;101161.00;;;12.24;83.17
56042;BME280;48756;41.374;2.066;2023-03-16T01:29:23;101154.03;;;12.20;80.60
56042;BME280;48756;41.374;2.066;2023-03-16T01:31:49;101153.25;;;12.10;83.60
56042;BME280;48756;41.374;2.066;2023-03-16T01:34:14;101163.06;;;11.84;82.29
56042;BME280;48756;41.374;2.066;2023-03-16T01:36:42;101164.09;;;11.57;82.96
56042;BME280;48756;41.374;2.066;2023-03-16T01:39:09;101144.03;;;11.63;83.53
56042;BME280;48756;41.374;2.066;2023-03-16T01:41:34;101145.81;;;11.58;84.41
56042;BME280;48756;41.374;2.066;2023-03-16T01:44:00;101145.84;;;11.51;84.45
56042;BME280;48756;41.374;2.066;2023-03-16T01:46:26;101144.22;;;11.39;85.56
56042;BME280;48756;41.374;2.066;2023-03-16T01:54:00;101140.50;;;11.71;85.36
56042;BME280;48756;41.374;2.066;2023-03-16T01:56:30;101140.38;;;11.89;84.41
56042;BME280;48756;41.374;2.066;2023-03-16T01:58:59;101137.84;;;11.75;83.74
56042;BME280;48756;41.374;2.066;2023-03-16T02:01:26;101137.88;;;11.80;84.12
56042;BME280;48756;41.374;2.066;2023-03-16T02:03:54;101134.31;;;11.87;82.59
56042;BME280;48756;41.374;2.066;2023-03-16T02:06:21;101132.63;;;11.75;84.17
56042;BME280;48756;41.374;2.066;2023-03-16T02:08:50;101128.28;;;11.74;84.18
56042;BME280;48756;41.374;2.066;2023-03-16T02:11:19;101132.69;;;11.68;82.75
56042;BME280;48756;41.374;2.066;2023-03-16T02:13:46;101123.97;;;11.69;82.93
56042;BME280;48756;41.374;2.066;2023-03-16T02:16:13;101120.66;;;11.45;85.13
56042;BME280;48756;41.374;2.066;2023-03-16T02:18:44;101125.97;;;11.36;84.34
56042;BME280;48756;41.374;2.066;2023-03-16T02:21:14;101132.09;;;11.27;83.47
56042;BME280;48756;41.374;2.066;2023-03-16T02:23:43;101120.75;;;11.31;84.14
56042;BME280;48756;41.374;2.066;2023-03-16T02:26:18;101124.28;;;11.26;82.46
56042;BME280;48756;41.374;2.066;2023-03-16T02:31:25;101126.09;;;11.15;83.13
56042;BME280;48756;41.374;2.066;2023-03-16T02:33:51;101119.91;;;11.34;83.33
56042;BME280;48756;41.374;2.066;2023-03-16T02:36:17;101098.22;;;11.21;83.29
56042;BME280;48756;41.374;2.066;2023-03-16T02:38:43;101098.34;;;10.98;86.40
56042;BME280;48756;41.374;2.066;2023-03-16T02:41:10;101097.66;;;10.55;89.61
56042;BME280;48756;41.374;2.066;2023-03-16T02:43:36;101102.91;;;10.52;91.08
56042;BME280;48756;41.374;2.066;2023-03-16T02:46:02;101093.31;;;10.65;92.77
56042;BME280;48756;41.374;2.066;2023-03-16T02:48:34;101086.19;;;10.97;90.44
56042;BME280;48756;41.374;2.066;2023-03-16T02:51:01;101085.19;;;11.20;88.32
56042;BME280;48756;41.374;2.066;2023-03-16T02:53:26;101081.63;;;11.30;87.11
56042;BME280;48756;41.374;2.066;2023-03-16T02:55:52;101073.00;;;11.22;87.97
56042;BME280;48756;41.374;2.066;2023-03-16T02:58:17;101077.25;;;11.37;87.23
56042;BME280;48756;41.374;2.066;2023-03-16T03:00:43;101081.56;;;11.41;86.62
56042;BME280;48756;41.374;2.066;2023-03-16T03:03:09;101079.09;;;11.22;89.09
56042;BME280;48756;41.374;2.066;2023-03-16T03:05:35;101074.78;;;11.17;87.62
56042;BME280;48756;41.374;2.066;2023-03-16T03:08:01;101065.22;;;11.16;88.17
56042;BME280;48756;41.374;2.066;2023-03-16T03:10:26;101076.63;;;10.99;88.61
56042;BME280;48756;41.374;2.066;2023-03-16T03:12:52;101065.28;;;11.03;89.52
56042;BME280;48756;41.374;2.066;2023-03-16T03:15:17;101074.84;;;11.03;89.30
56042;BME280;48756;41.374;2.066;2023-03-16T03:17:43;101076.72;;;10.80;89.96
56042;BME280;48756;41.374;2.066;2023-03-16T03:20:09;101074.13;;;10.75;89.49
56042;BME280;48756;41.374;2.066;2023-03-16T03:22:40;101076.81;;;10.64;89.49
56042;BME280;48756;41.374;2.066;2023-03-16T03:25:06;101076.81;;;10.60;93.03
56042;BME280;48756;41.374;2.066;2023-03-16T03:27:32;101070.72;;;10.65;90.93
56042;BME280;48756;41.374;2.066;2023-03-16T03:29:58;101072.53;;;10.45;90.16
56042;BME280;48756;41.374;2.066;2023-03-16T03:32:23;101069.94;;;10.47;89.77
56042;BME280;48756;41.374;2.066;2023-03-16T03:34:48;101074.31;;;10.32;89.89
56042;BME280;48756;41.374;2.066;2023-03-16T03:37:14;101077.75;;;10.43;90.87
56042;BME280;48756;41.374;2.066;2023-03-16T03:39:39;101075.19;;;10.31;91.10
56042;BME280;48756;41.374;2.066;2023-03-16T03:42:05;101068.19;;;10.44;91.01
56042;BME280;48756;41.374;2.066;2023-03-16T03:44:30;101072.59;;;10.19;92.64
56042;BME280;48756;41.374;2.066;2023-03-16T03:46:58;101072.59;;;10.19;93.03
56042;BME280;48756;41.374;2.066;2023-03-16T03:49:24;101069.91;;;10.48;92.85
56042;BME280;48756;41.374;2.066;2023-03-16T03:51:49;101068.19;;;10.47;92.75
56042;BME280;48756;41.374;2.066;2023-03-16T03:54:15;101063.94;;;10.02;95.21
56042;BME280;48756;41.374;2.066;2023-03-16T03:56:41;101065.66;;;10.03;96.69
56042;BME280;48756;41.374;2.066;2023-03-16T03:59:06;101074.31;;;10.14;95.33
56042;BME280;48756;41.374;2.066;2023-03-16T04:01:32;101078.63;;;10.35;96.39
56042;BME280;48756;41.374;2.066;2023-03-16T04:03:57;101075.97;;;10.53;93.99
56042;BME280;48756;41.374;2.066;2023-03-16T04:06:22;101075.13;;;10.51;96.24
56042;BME280;48756;41.374;2.066;2023-03-16T04:08:48;101076.00;;;10.46;96.11
56042;BME280;48756;41.374;2.066;2023-03-16T04:11:13;101070.84;;;10.26;96.53
56042;BME280;48756;41.374;2.066;2023-03-16T04:13:38;101077.78;;;10.18;98.85
56042;BME280;48756;41.374;2.066;2023-03-16T04:16:05;101083.84;;;10.42;96.45
56042;BME280;48756;41.374;2.066;2023-03-16T04:18:30;101090.78;;;10.18;94.46
56042;BME280;48756;41.374;2.066;2023-03-16T04:21:04;101089.97;;;10.22;93.80
56042;BME280;48756;41.374;2.066;2023-03-16T04:23:30;101082.97;;;10.42;92.34
56042;BME280;48756;41.374;2.066;2023-03-16T04:25:57;101080.34;;;10.40;92.30
56042;BME280;48756;41.374;2.066;2023-03-16T04:28:23;101090.78;;;10.39;92.71
56042;BME280;48756;41.374;2.066;2023-03-16T04:30:50;101089.03;;;10.39;92.39
56042;BME280;48756;41.374;2.066;2023-03-16T04:33:18;101094.25;;;10.47;91.52
56042;BME280;48756;41.374;2.066;2023-03-16T04:35:44;101099.47;;;10.46;91.40
56042;BME280;48756;41.374;2.066;2023-03-16T04:38:10;101096.00;;;10.42;90.79
56042;BME280;48756;41.374;2.066;2023-03-16T04:40:36;101093.41;;;10.31;89.98
56042;BME280;48756;41.374;2.066;2023-03-16T04:43:02;101096.91;;;10.27;90.41
56042;BME280;48756;41.374;2.066;2023-03-16T04:45:27;101101.22;;;10.31;89.13
56042;BME280;48756;41.374;2.066;2023-03-16T04:47:52;101104.69;;;10.41;88.06
56042;BME280;48756;41.374;2.066;2023-03-16T04:50:17;101098.63;;;10.31;88.26
56042;BME280;48756;41.374;2.066;2023-03-16T04:52:43;101097.78;;;10.22;88.64
56042;BME280;48756;41.374;2.066;2023-03-16T04:55:08;101097.78;;;10.25;88.22
56042;BME280;48756;41.374;2.066;2023-03-16T04:57:34;101096.00;;;10.42;87.67
56042;BME280;48756;41.374;2.066;2023-03-16T04:59:59;101088.22;;;10.22;87.57
56042;BME280;48756;41.374;2.066;2023-03-16T05:02:24;101088.25;;;10.21;89.77
56042;BME280;48756;41.374;2.066;2023-03-16T05:04:50;101084.72;;;10.14;88.66
56042;BME280;48756;41.374;2.066;2023-03-16T05:07:15;101092.56;;;10.22;87.73
56042;BME280;48756;41.374;2.066;2023-03-16T05:09:41;101082.13;;;10.09;88.59
56042;BME280;48756;41.374;2.066;2023-03-16T05:12:06;101080.44;;;10.21;88.09
56042;BME280;48756;41.374;2.066;2023-03-16T05:14:31;101080.38;;;10.16;88.11
56042;BME280;48756;41.374;2.066;2023-03-16T05:17:00;101083.84;;;10.32;86.98
56042;BME280;48756;41.374;2.066;2023-03-16T05:19:27;101087.28;;;10.40;87.00
56042;BME280;48756;41.374;2.066;2023-03-16T05:21:53;101084.66;;;10.54;85.55
56042;BME280;48756;41.374;2.066;2023-03-16T05:24:18;101084.56;;;10.77;85.27
56042;BME280;48756;41.374;2.066;2023-03-16T05:26:43;101084.50;;;10.84;83.82
56042;BME280;48756;41.374;2.066;2023-03-16T05:29:09;101085.38;;;10.89;83.17
56042;BME280;48756;41.374;2.066;2023-03-16T05:31:34;101081.03;;;10.90;82.75
56042;BME280;48756;41.374;2.066;2023-03-16T05:34:01;101091.50;;;10.78;82.90
56042;BME280;48756;41.374;2.066;2023-03-16T05:36:26;101082.00;;;10.61;85.20
56042;BME280;48756;41.374;2.066;2023-03-16T05:38:54;101081.28;;;10.24;84.47
56042;BME280;48756;41.374;2.066;2023-03-16T05:41:20;101080.41;;;9.93;86.47
56042;BME280;48756;41.374;2.066;2023-03-16T05:43:46;101082.16;;;9.99;87.12
56042;BME280;48756;41.374;2.066;2023-03-16T05:46:12;101080.44;;;10.02;86.22
56042;BME280;48756;41.374;2.066;2023-03-16T05:48:37;101088.22;;;10.28;85.89
56042;BME280;48756;41.374;2.066;2023-03-16T05:51:03;101078.59;;;10.50;85.22
56042;BME280;48756;41.374;2.066;2023-03-16T05:53:33;101082.88;;;10.68;83.81
56042;BME280;48756;41.374;2.066;2023-03-16T05:55:59;101080.34;;;10.37;85.65
56042;BME280;48756;41.374;2.066;2023-03-16T05:58:25;101073.47;;;10.10;86.24
56042;BME280;48756;41.374;2.066;2023-03-16T06:00:50;101084.72;;;10.29;85.25
56042;BME280;48756;41.374;2.066;2023-03-16T06:03:16;101083.88;;;10.26;86.15
56042;BME280;48756;41.374;2.066;2023-03-16T06:05:41;101076.03;;;10.17;84.75
56042;BME280;48756;41.374;2.066;2023-03-16T06:08:07;101075.22;;;9.89;86.87
56042;BME280;48756;41.374;2.066;2023-03-16T06:10:33;101080.44;;;10.01;87.33
56042;BME280;48756;41.374;2.066;2023-03-16T06:12:58;101089.94;;;10.12;85.30
56042;BME280;48756;41.374;2.066;2023-03-16T06:15:24;101085.66;;;9.98;85.53
56042;BME280;48756;41.374;2.066;2023-03-16T06:17:50;101079.56;;;9.93;86.24
56042;BME280;48756;41.374;2.066;2023-03-16T06:20:15;101083.91;;;9.88;85.86
56042;BME280;48756;41.374;2.066;2023-03-16T06:22:42;101090.84;;;9.87;85.24
56042;BME280;48756;41.374;2.066;2023-03-16T06:25:08;101096.91;;;10.01;85.03
56042;BME280;48756;41.374;2.066;2023-03-16T06:27:34;101089.09;;;9.91;84.84
56042;BME280;48756;41.374;2.066;2023-03-16T06:29:59;101095.19;;;9.90;84.77
56042;BME280;48756;41.374;2.066;2023-03-16T06:32:25;101097.78;;;10.03;84.93
56042;BME280;48756;41.374;2.066;2023-03-16T06:34:50;101099.50;;;10.30;83.31
56042;BME280;48756;41.374;2.066;2023-03-16T06:37:16;101105.53;;;10.45;83.03
56042;BME280;48756;41.374;2.066;2023-03-16T06:39:42;101099.47;;;10.41;82.02
56042;BME280;48756;41.374;2.066;2023-03-16T06:42:08;101102.97;;;10.11;83.87
56042;BME280;48756;41.374;2.066;2023-03-16T06:44:34;101096.03;;;10.24;83.19
56042;BME280;48756;41.374;2.066;2023-03-16T06:46:59;101099.47;;;10.44;82.55
56042;BME280;48756;41.374;2.066;2023-03-16T06:49:25;101099.47;;;10.36;83.51
56042;BME280;48756;41.374;2.066;2023-03-16T06:51:50;101096.84;;;10.39;83.78
56042;BME280;48756;41.374;2.066;2023-03-16T06:54:16;101103.78;;;10.50;82.06
56042;BME280;48756;41.374;2.066;2023-03-16T06:56:41;101106.34;;;10.57;82.08
56042;BME280;48756;41.374;2.066;2023-03-16T06:59:07;101105.44;;;10.70;80.97
56042;BME280;48756;41.374;2.066;2023-03-16T07:01:32;101110.63;;;10.78;79.82
56042;BME280;48756;41.374;2.066;2023-03-16T07:03:57;101117.53;;;10.84;81.38
56042;BME280;48756;41.374;2.066;2023-03-16T07:06:23;101107.00;;;11.03;80.13
56042;BME280;48756;41.374;2.066;2023-03-16T07:08:48;101101.78;;;11.03;80.11
56042;BME280;48756;41.374;2.066;2023-03-16T07:11:14;101101.69;;;11.22;79.90
56042;BME280;48756;41.374;2.066;2023-03-16T07:13:39;101105.91;;;11.41;79.68
56042;BME280;48756;41.374;2.066;2023-03-16T07:16:05;101109.09;;;11.77;77.31
56042;BME280;48756;41.374;2.066;2023-03-16T07:18:31;101114.34;;;11.77;76.96
56042;BME280;48756;41.374;2.066;2023-03-16T07:20:56;101125.69;;;11.73;76.37
56042;BME280;48756;41.374;2.066;2023-03-16T07:23:22;101125.97;;;11.36;77.44
56042;BME280;48756;41.374;2.066;2023-03-16T07:25:54;101119.81;;;11.43;78.13
56042;BME280;48756;41.374;2.066;2023-03-16T07:28:19;101131.94;;;11.50;77.43
56042;BME280;48756;41.374;2.066;2023-03-16T07:30:45;101138.06;;;11.45;76.71
56042;BME280;48756;41.374;2.066;2023-03-16T07:33:10;101126.94;;;11.17;78.04
56042;BME280;48756;41.374;2.066;2023-03-16T07:35:36;101124.19;;;11.41;77.21
56042;BME280;48756;41.374;2.066;2023-03-16T07:38:01;101144.09;;;11.53;77.81
56042;BME280;48756;41.374;2.066;2023-03-16T07:40:27;101148.28;;;11.83;76.59
56042;BME280;48756;41.374;2.066;2023-03-16T07:42:52;101136.94;;;11.87;76.21
56042;BME280;48756;41.374;2.066;2023-03-16T07:45:17;101136.16;;;11.70;76.94
56042;BME280;48756;41.374;2.066;2023-03-16T07:47:43;101138.72;;;11.77;76.87
56042;BME280;48756;41.374;2.066;2023-03-16T07:50:08;101137.69;;;12.01;75.53
56042;BME280;48756;41.374;2.066;2023-03-16T07:52:35;101141.09;;;12.09;75.37
56042;BME280;48756;41.374;2.066;2023-03-16T07:55:00;101136.91;;;11.90;75.33
56042;BME280;48756;41.374;2.066;2023-03-16T07:57:26;101127.06;;;12.18;74.91
56042;BME280;48756;41.374;2.066;2023-03-16T07:59:51;101120.59;;;12.54;73.30
56042;BME280;48756;41.374;2.066;2023-03-16T08:02:17;101134.31;;;12.73;72.78
56042;BME280;48756;41.374;2.066;2023-03-16T08:04:43;101126.63;;;12.59;71.72
56042;BME280;48756;41.374;2.066;2023-03-16T08:07:09;101128.63;;;12.36;72.91
56042;BME280;48756;41.374;2.066;2023-03-16T08:09:35;101123.09;;;12.63;71.75
56042;BME280;48756;41.374;2.066;2023-03-16T08:12:01;101130.09;;;12.61;72.17
56042;BME280;48756;41.374;2.066;2023-03-16T08:14:30;101127.78;;;13.06;69.67
56042;BME280;48756;41.374;2.066;2023-03-16T08:16:58;101132.94;;;13.10;68.41
56042;BME280;48756;41.374;2.066;2023-03-16T08:19:24;101122.09;;;13.42;68.09
56042;BME280;48756;41.374;2.066;2023-03-16T08:21:50;101121.16;;;13.45;66.54
56042;BME280;48756;41.374;2.066;2023-03-16T08:24:15;101123.81;;;13.43;66.92
56042;BME280;48756;41.374;2.066;2023-03-16T08:26:40;101130.56;;;13.57;66.66
56042;BME280;48756;41.374;2.066;2023-03-16T08:29:06;101131.50;;;13.53;66.42
56042;BME280;48756;41.374;2.066;2023-03-16T08:31:32;101122.88;;;13.47;65.72
56042;BME280;48756;41.374;2.066;2023-03-16T08:33:59;101123.50;;;13.63;65.49
56042;BME280;48756;41.374;2.066;2023-03-16T08:36:24;101129.78;;;14.05;64.98
56042;BME280;48756;41.374;2.066;2023-03-16T08:38:51;101127.13;;;14.08;63.21
56042;BME280;48756;41.374;2.066;2023-03-16T08:41:18;101127.44;;;14.38;63.33
56042;BME280;48756;41.374;2.066;2023-03-16T08:43:45;101114.81;;;14.12;62.53
56042;BME280;48756;41.374;2.066;2023-03-16T08:46:11;101116.03;;;14.40;61.90
56042;BME280;48756;41.374;2.066;2023-03-16T08:48:38;101119.84;;;14.72;61.32
56042;BME280;48756;41.374;2.066;2023-03-16T08:51:04;101134.16;;;14.97;59.63
56042;BME280;48756;41.374;2.066;2023-03-16T08:53:30;101124.75;;;14.87;59.97
56042;BME280;48756;41.374;2.066;2023-03-16T08:56:02;101125.19;;;15.08;58.99
56042;BME280;48756;41.374;2.066;2023-03-16T08:58:29;101118.53;;;15.31;57.56
56042;BME280;48756;41.374;2.066;2023-03-16T09:00:56;101126.41;;;15.31;58.43
56042;BME280;48756;41.374;2.066;2023-03-16T09:03:22;101124.63;;;15.32;57.13
56042;BME280;48756;41.374;2.066;2023-03-16T09:05:47;101120.81;;;15.47;57.13
56042;BME280;48756;41.374;2.066;2023-03-16T09:08:13;101117.41;;;16.14;55.24
56042;BME280;48756;41.374;2.066;2023-03-16T09:10:38;101119.78;;;16.23;54.53
56042;BME280;48756;41.374;2.066;2023-03-16T09:13:04;101119.34;;;16.71;53.64
56042;BME280;48756;41.374;2.066;2023-03-16T09:15:29;101122.44;;;16.22;53.29
56042;BME280;48756;41.374;2.066;2023-03-16T09:17:55;101119.41;;;16.70;51.59
56042;BME280;48756;41.374;2.066;2023-03-16T09:20:22;101121.78;;;16.79;51.05
56042;BME280;48756;41.374;2.066;2023-03-16T09:22:47;101128.50;;;16.89;51.72
56042;BME280;48756;41.374;2.066;2023-03-16T09:25:12;101129.53;;;17.13;51.32
56042;BME280;48756;41.374;2.066;2023-03-16T09:27:38;101129.78;;;17.05;50.91
56042;BME280;48756;41.374;2.066;2023-03-16T09:30:05;101132.66;;;16.96;50.86
56042;BME280;48756;41.374;2.066;2023-03-16T09:32:31;101130.78;;;17.57;49.78
56042;BME280;48756;41.374;2.066;2023-03-16T09:34:57;101120.97;;;17.34;48.68
56042;BME280;48756;41.374;2.066;2023-03-16T09:37:23;101115.25;;;17.22;49.89
56042;BME280;48756;41.374;2.066;2023-03-16T09:39:50;101120.00;;;17.65;48.65
56042;BME280;48756;41.374;2.066;2023-03-16T09:42:20;101124.31;;;17.69;49.20
56042;BME280;48756;41.374;2.066;2023-03-16T09:47:16;101104.44;;;18.10;46.35
56042;BME280;48756;41.374;2.066;2023-03-16T09:49:47;101104.94;;;17.96;46.87
56042;BME280;48756;41.374;2.066;2023-03-16T09:52:31;101106.31;;;18.31;46.75
56042;BME280;48756;41.374;2.066;2023-03-16T09:55:16;101106.78;;;18.19;48.69
56042;BME280;48756;41.374;2.066;2023-03-16T09:57:47;101106.47;;;18.52;47.70
56042;BME280;48756;41.374;2.066;2023-03-16T10:00:21;101103.63;;;18.58;47.51
56042;BME280;48756;41.374;2.066;2023-03-16T10:05:14;101110.31;;;18.43;47.13
56042;BME280;48756;41.374;2.066;2023-03-16T10:12:38;101112.22;;;18.64;47.99
56042;BME280;48756;41.374;2.066;2023-03-16T10:15:10;101108.72;;;18.39;47.58
56042;BME280;48756;41.374;2.066;2023-03-16T10:17:51;101103.09;;;17.98;48.92
56042;BME280;48756;41.374;2.066;2023-03-16T10:20:20;101099.28;;;18.07;49.15
56042;BME280;48756;41.374;2.066;2023-03-16T10:22:47;101102.78;;;18.32;48.99
56042;BME280;48756;41.374;2.066;2023-03-16T10:25:34;101099.09;;;18.86;48.12
56042;BME280;48756;41.374;2.066;2023-03-16T10:28:03;101097.41;;;19.07;46.69
56042;BME280;48756;41.374;2.066;2023-03-16T10:30:30;101091.47;;;19.01;47.10
56042;BME280;48756;41.374;2.066;2023-03-16T10:33:00;101098.41;;;18.81;47.18
56042;BME280;48756;41.374;2.066;2023-03-16T10:38:02;101084.97;;;18.64;45.86
56042;BME280;48756;41.374;2.066;2023-03-16T10:40:31;101079.53;;;19.57;45.16
56042;BME280;48756;41.374;2.066;2023-03-16T10:43:10;101079.78;;;19.30;46.05
56042;BME280;48756;41.374;2.066;2023-03-16T10:45:36;101078.91;;;19.51;45.21
56042;BME280;48756;41.374;2.066;2023-03-16T10:48:12;101066.06;;;19.20;44.18
56042;BME280;48756;41.374;2.066;2023-03-16T10:50:41;101075.16;;;19.13;44.73
56042;BME280;48756;41.374;2.066;2023-03-16T10:53:14;101074.78;;;19.66;43.44
56042;BME280;48756;41.374;2.066;2023-03-16T10:55:41;101079.28;;;19.42;43.47
56042;BME280;48756;41.374;2.066;2023-03-16T10:58:07;101065.84;;;19.70;42.96
56042;BME280;48756;41.374;2.066;2023-03-16T11:00:34;101069.34;;;19.70;42.27
56042;BME280;48756;41.374;2.066;2023-03-16T11:03:00;101061.78;;;19.61;43.18
56042;BME280;48756;41.374;2.066;2023-03-16T11:05:33;101057.47;;;19.58;42.87
56042;BME280;48756;41.374;2.066;2023-03-16T11:08:06;101061.28;;;19.73;41.93
56042;BME280;48756;41.374;2.066;2023-03-16T11:10:35;101064.84;;;19.50;42.52
56042;BME280;48756;41.374;2.066;2023-03-16T11:13:08;101066.91;;;19.20;42.65
56042;BME280;48756;41.374;2.066;2023-03-16T11:15:36;101062.41;;;19.24;43.77
56042;BME280;48756;41.374;2.066;2023-03-16T11:18:02;101058.16;;;20.04;41.51
56042;BME280;48756;41.374;2.066;2023-03-16T11:20:28;101063.72;;;19.98;41.39
56042;BME280;48756;41.374;2.066;2023-03-16T11:22:56;101065.97;;;20.07;42.16
56042;BME280;48756;41.374;2.066;2023-03-16T11:28:15;101058.00;;;20.28;41.26
56042;BME280;48756;41.374;2.066;2023-03-16T11:30:50;101055.66;;;19.81;41.52
56042;BME280;48756;41.374;2.066;2023-03-16T11:33:19;101048.06;;;20.33;41.44
56042;BME280;48756;41.374;2.066;2023-03-16T11:38:15;101052.09;;;19.82;41.26
56042;BME280;48756;41.374;2.066;2023-03-16T11:40:47;101050.94;;;19.87;41.92
56042;BME280;48756;41.374;2.066;2023-03-16T11:46:15;101044.44;;;19.96;41.68
56042;BME280;48756;41.374;2.066;2023-03-16T11:48:43;101045.72;;;20.47;41.18
56042;BME280;48756;41.374;2.066;2023-03-16T11:51:16;101037.72;;;20.08;41.38
56042;BME280;48756;41.374;2.066;2023-03-16T11:56:15;101030.19;;;19.78;41.77
56042;BME280;48756;41.374;2.066;2023-03-16T12:14:32;101024.53;;;20.47;43.10
56042;BME280;48756;41.374;2.066;2023-03-16T12:19:27;101021.13;;;20.64;42.15
56042;BME280;48756;41.374;2.066;2023-03-16T12:22:11;101013.53;;;20.36;41.79
56042;BME280;48756;41.374;2.066;2023-03-16T12:24:41;101004.41;;;20.80;41.58
56042;BME280;48756;41.374;2.066;2023-03-16T12:27:10;101008.13;;;20.58;41.21
56042;BME280;48756;41.374;2.066;2023-03-16T12:29:40;100996.97;;;20.51;41.19
56042;BME280;48756;41.374;2.066;2023-03-16T12:32:13;100992.59;;;19.92;41.70
56042;BME280;48756;41.374;2.066;2023-03-16T12:39:45;100986.25;;;20.54;40.72
56042;BME280;48756;41.374;2.066;2023-03-16T12:42:24;100980.47;;;20.46;40.35
56042;BME280;48756;41.374;2.066;2023-03-16T12:45:11;100974.84;;;20.90;40.20
56042;BME280;48756;41.374;2.066;2023-03-16T12:50:18;100970.31;;;20.35;39.58
56042;BME280;48756;41.374;2.066;2023-03-16T12:52:49;100979.88;;;20.39;39.68
56042;BME280;48756;41.374;2.066;2023-03-16T12:55:16;100965.03;;;20.35;40.48
56042;BME280;48756;41.374;2.066;2023-03-16T12:57:42;100967.00;;;20.69;39.35
56042;BME280;48756;41.374;2.066;2023-03-16T13:00:09;100967.94;;;20.49;39.30
56042;BME280;48756;41.374;2.066;2023-03-16T13:02:36;100962.00;;;20.63;40.34
56042;BME280;48756;41.374;2.066;2023-03-16T13:05:10;100957.34;;;21.22;39.03
56042;BME280;48756;41.374;2.066;2023-03-16T13:07:44;100961.91;;;21.71;38.67
56042;BME280;48756;41.374;2.066;2023-03-16T13:10:11;100956.13;;;21.12;38.30
56042;BME280;48756;41.374;2.066;2023-03-16T13:12:41;100953.00;;;21.21;38.94
56042;BME280;48756;41.374;2.066;2023-03-16T13:17:47;100953.53;;;21.10;39.69
56042;BME280;48756;41.374;2.066;2023-03-16T13:27:53;100948.28;;;21.45;38.73
56042;BME280;48756;41.374;2.066;2023-03-16T13:30:21;100949.13;;;21.45;38.19
56042;BME280;48756;41.374;2.066;2023-03-16T13:32:47;100954.47;;;21.09;39.13
56042;BME280;48756;41.374;2.066;2023-03-16T13:35:17;100955.09;;;21.50;38.21
56042;BME280;48756;41.374;2.066;2023-03-16T13:37:43;100946.63;;;21.25;37.19
56042;BME280;48756;41.374;2.066;2023-03-16T13:40:17;100935.94;;;21.61;36.98
56042;BME280;48756;41.374;2.066;2023-03-16T13:42:47;100937.31;;;21.85;37.34
56042;BME280;48756;41.374;2.066;2023-03-16T13:45:17;100939.72;;;21.39;35.55
56042;BME280;48756;41.374;2.066;2023-03-16T13:47:43;100932.94;;;21.34;36.06
56042;BME280;48756;41.374;2.066;2023-03-16T13:50:09;100943.28;;;21.56;37.62
56042;BME280;48756;41.374;2.066;2023-03-16T13:52:35;100939.81;;;21.71;37.48
56042;BME280;48756;41.374;2.066;2023-03-16T13:55:05;100936.94;;;21.06;40.00
56042;BME280;48756;41.374;2.066;2023-03-16T13:57:34;100930.47;;;21.12;40.51